createdAt,value
2018-05-31T00:01:09.923Z,19.90
2018-05-31T00:03:38.807Z,19.90
2018-05-31T00:06:09.224Z,19.90
2018-05-31T00:08:38.207Z,19.90
2018-05-31T00:11:07.111Z,19.90
2018-05-31T00:13:36.000Z,20.00
2018-05-31T00:16:04.868Z,19.90
2018-05-31T00:18:33.775Z,19.80
2018-05-31T00:21:02.638Z,19.80
2018-05-31T00:23:31.592Z,19.80
2018-05-31T00:26:00.504Z,19.80
2018-05-31T00:28:29.389Z,19.80
2018-05-31T00:30:58.288Z,19.90
2018-05-31T00:33:27.167Z,19.90
2018-05-31T00:35:56.103Z,19.90
2018-05-31T00:38:24.992Z,20.00
2018-05-31T00:40:53.887Z,20.00
2018-05-31T00:43:22.771Z,20.00
2018-05-31T00:45:51.655Z,19.90
2018-05-31T00:48:20.520Z,19.90
2018-05-31T00:50:49.387Z,19.90
2018-05-31T00:53:18.309Z,19.80
2018-05-31T00:55:59.201Z,19.80
2018-05-31T00:58:28.118Z,19.80
2018-05-31T01:00:57.768Z,19.80
2018-05-31T01:03:26.659Z,19.70
2018-05-31T01:05:55.551Z,19.70
2018-05-31T01:08:24.418Z,19.60
2018-05-31T01:10:53.309Z,19.50
2018-05-31T01:13:22.179Z,19.40
2018-05-31T01:15:51.824Z,19.40
2018-05-31T01:18:20.699Z,19.40
2018-05-31T01:20:49.566Z,19.30
2018-05-31T01:23:18.474Z,19.30
2018-05-31T01:25:47.346Z,19.20
2018-05-31T01:28:16.985Z,19.00
2018-05-31T01:30:45.862Z,19.00
2018-05-31T01:33:14.739Z,19.00
2018-05-31T01:35:43.638Z,18.90
2018-05-31T01:38:24.291Z,18.90
2018-05-31T01:40:53.179Z,18.80
2018-05-31T01:43:22.057Z,18.60
2018-05-31T01:45:51.692Z,18.60
2018-05-31T01:48:20.621Z,18.50
2018-05-31T01:50:49.508Z,18.50
2018-05-31T01:53:18.479Z,18.50
2018-05-31T01:55:47.349Z,18.50
2018-05-31T01:58:16.235Z,18.50
2018-05-31T02:00:45.104Z,18.40
2018-05-31T02:03:14.742Z,18.40
2018-05-31T02:05:43.638Z,18.40
2018-05-31T02:08:12.515Z,18.40
2018-05-31T02:10:41.388Z,18.40
2018-05-31T02:13:10.287Z,18.40
2018-05-31T02:15:39.178Z,18.40
2018-05-31T02:18:08.063Z,18.40
2018-05-31T02:20:36.938Z,18.40
2018-05-31T02:23:06.603Z,18.40
2018-05-31T02:25:35.484Z,18.40
2018-05-31T02:28:04.361Z,18.40
2018-05-31T02:30:33.249Z,18.40
2018-05-31T02:33:02.127Z,18.30
2018-05-31T02:35:31.055Z,18.20
2018-05-31T02:38:00.047Z,18.20
2018-05-31T02:40:28.940Z,18.20
2018-05-31T02:42:57.807Z,18.20
2018-05-31T02:45:26.663Z,18.20
2018-05-31T02:47:55.571Z,18.10
2018-05-31T02:50:24.448Z,18.10
2018-05-31T02:52:53.316Z,18.00
2018-05-31T02:55:23.093Z,18.00
2018-05-31T02:57:51.992Z,17.90
2018-05-31T03:00:20.975Z,18.00
2018-05-31T03:02:49.831Z,18.00
2018-05-31T03:05:18.702Z,18.00
2018-05-31T03:07:47.596Z,18.00
2018-05-31T03:10:16.474Z,18.00
2018-05-31T03:12:45.357Z,18.10
2018-05-31T03:15:15.015Z,18.00
2018-05-31T03:17:43.921Z,18.00
2018-05-31T03:20:14.330Z,18.00
2018-05-31T03:22:43.259Z,18.00
2018-05-31T03:25:12.118Z,18.10
2018-05-31T03:27:41.019Z,18.10
2018-05-31T03:30:11.512Z,18.10
2018-05-31T03:32:40.449Z,18.00
2018-05-31T03:35:09.289Z,18.00
2018-05-31T03:37:38.167Z,18.00
2018-05-31T03:40:07.835Z,18.10
2018-05-31T03:42:37.482Z,18.10
2018-05-31T03:45:06.479Z,18.00
2018-05-31T03:47:35.349Z,18.10
2018-05-31T03:50:04.223Z,18.10
2018-05-31T03:52:33.127Z,18.10
2018-05-31T03:55:01.994Z,18.10
2018-05-31T03:57:31.648Z,18.10
2018-05-31T04:00:00.537Z,18.00
2018-05-31T04:02:29.475Z,18.10
2018-05-31T04:04:58.315Z,18.00
2018-05-31T04:07:27.202Z,18.00
2018-05-31T04:09:56.075Z,18.00
2018-05-31T04:12:24.977Z,18.00
2018-05-31T04:14:53.896Z,18.00
2018-05-31T04:17:22.776Z,18.10
2018-05-31T04:19:51.635Z,18.10
2018-05-31T04:22:20.517Z,18.20
2018-05-31T04:24:49.413Z,18.20
2018-05-31T04:27:18.335Z,18.30
2018-05-31T04:29:47.304Z,18.40
2018-05-31T04:32:16.288Z,18.40
2018-05-31T04:34:45.175Z,18.50
2018-05-31T04:37:14.052Z,18.50
2018-05-31T04:39:42.932Z,18.60
2018-05-31T04:42:12.576Z,18.70
2018-05-31T04:44:41.456Z,18.70
2018-05-31T04:47:10.347Z,18.80
2018-05-31T04:49:39.233Z,18.90
2018-05-31T04:52:08.112Z,19.00
2018-05-31T04:54:36.974Z,19.00
2018-05-31T04:57:06.621Z,19.10
2018-05-31T04:59:35.495Z,19.00
2018-05-31T05:02:04.379Z,19.10
2018-05-31T05:04:33.251Z,19.10
2018-05-31T05:07:02.896Z,19.20
2018-05-31T05:09:31.827Z,19.20
2018-05-31T05:12:01.457Z,19.40
2018-05-31T05:14:31.131Z,19.50
2018-05-31T05:17:00.080Z,19.50
2018-05-31T05:19:28.968Z,19.60
2018-05-31T05:21:57.843Z,19.70
2018-05-31T05:24:26.792Z,19.80
2018-05-31T05:26:55.700Z,19.90
2018-05-31T05:29:24.589Z,20.00
2018-05-31T05:31:53.477Z,20.00
2018-05-31T05:34:22.362Z,20.00
2018-05-31T05:36:51.222Z,20.10
2018-05-31T05:39:20.844Z,20.00
2018-05-31T05:41:49.722Z,19.90
2018-05-31T05:44:18.728Z,19.80
2018-05-31T05:46:47.693Z,19.90
2018-05-31T05:49:16.554Z,19.90
2018-05-31T05:51:45.453Z,19.90
2018-05-31T05:54:14.326Z,19.90
2018-05-31T05:56:43.438Z,20.00
2018-05-31T05:59:12.324Z,20.10
2018-05-31T06:01:41.220Z,20.20
2018-05-31T06:04:10.187Z,20.30
2018-05-31T06:06:39.099Z,20.30
2018-05-31T06:09:07.993Z,20.40
2018-05-31T06:11:36.919Z,20.40
2018-05-31T06:14:05.874Z,20.50
2018-05-31T06:16:34.779Z,20.40
2018-05-31T06:19:03.655Z,20.50
2018-05-31T06:21:32.601Z,20.50
2018-05-31T06:24:02.985Z,20.50
2018-05-31T06:26:31.990Z,20.50
2018-05-31T06:29:00.964Z,20.60
2018-05-31T06:31:29.863Z,20.80
2018-05-31T06:33:58.750Z,21.00
2018-05-31T06:36:27.744Z,21.20
2018-05-31T06:38:57.527Z,21.30
2018-05-31T06:41:26.458Z,21.30
2018-05-31T06:43:55.337Z,21.20
2018-05-31T06:46:24.307Z,21.20
2018-05-31T06:48:53.195Z,21.30
2018-05-31T06:51:22.079Z,21.50
2018-05-31T06:53:50.967Z,21.50
2018-05-31T06:56:19.846Z,21.40
2018-05-31T06:58:48.778Z,21.40
2018-05-31T07:01:17.758Z,21.40
2018-05-31T07:03:46.666Z,21.40
2018-05-31T07:06:15.575Z,21.30
2018-05-31T07:08:44.527Z,21.40
2018-05-31T07:11:13.476Z,21.30
2018-05-31T07:13:43.139Z,21.30
2018-05-31T07:16:12.051Z,21.30
2018-05-31T07:18:41.012Z,21.30
2018-05-31T07:21:09.902Z,21.30
2018-05-31T07:23:38.790Z,21.40
2018-05-31T07:26:07.661Z,21.50
2018-05-31T07:28:36.553Z,21.50
2018-05-31T07:31:05.433Z,21.50
2018-05-31T07:33:34.325Z,21.50
2018-05-31T07:36:03.212Z,21.50
2018-05-31T07:38:32.115Z,21.70
2018-05-31T07:41:00.995Z,21.60
2018-05-31T07:43:29.903Z,21.70
2018-05-31T07:45:58.793Z,21.80
2018-05-31T07:48:27.655Z,21.80
2018-05-31T07:50:56.568Z,21.80
2018-05-31T07:53:25.452Z,21.80
2018-05-31T07:55:54.380Z,21.80
2018-05-31T07:58:23.275Z,21.90
2018-05-31T08:00:52.143Z,21.90
2018-05-31T08:03:21.037Z,22.00
2018-05-31T08:05:49.993Z,22.10
2018-05-31T08:08:18.848Z,22.10
2018-05-31T08:10:48.505Z,22.20
2018-05-31T08:13:17.385Z,22.20
2018-05-31T08:15:46.307Z,22.30
2018-05-31T08:18:15.294Z,22.20
2018-05-31T08:20:44.236Z,22.20
2018-05-31T08:23:14.588Z,22.30
2018-05-31T08:25:43.502Z,22.30
2018-05-31T08:28:12.381Z,22.30
2018-05-31T08:30:41.258Z,22.40
2018-05-31T08:33:10.171Z,22.30
2018-05-31T08:35:39.094Z,22.40
2018-05-31T08:38:07.945Z,22.60
2018-05-31T08:40:36.855Z,22.60
2018-05-31T08:43:05.760Z,22.60
2018-05-31T08:45:35.421Z,22.70
2018-05-31T08:48:04.325Z,22.70
2018-05-31T08:50:33.307Z,22.70
2018-05-31T08:53:02.242Z,22.80
2018-05-31T08:55:31.104Z,22.90
2018-05-31T08:58:00.052Z,23.00
2018-05-31T09:00:28.938Z,23.00
2018-05-31T09:02:57.847Z,23.10
2018-05-31T09:05:26.743Z,23.20
2018-05-31T09:07:55.654Z,23.30
2018-05-31T09:10:24.561Z,23.40
2018-05-31T09:12:54.229Z,23.50
2018-05-31T09:15:23.214Z,23.50
2018-05-31T09:17:52.129Z,23.60
2018-05-31T09:20:21.119Z,23.70
2018-05-31T09:22:50.069Z,23.80
2018-05-31T09:25:18.946Z,23.80
2018-05-31T09:27:47.843Z,23.90
2018-05-31T09:30:16.743Z,24.00
2018-05-31T09:32:46.425Z,24.00
2018-05-31T09:35:16.119Z,24.10
2018-05-31T09:37:45.023Z,24.10
2018-05-31T09:40:14.676Z,24.30
2018-05-31T09:42:43.581Z,24.20
2018-05-31T09:45:12.552Z,24.20
2018-05-31T09:47:41.443Z,24.20
2018-05-31T09:50:10.339Z,24.30
2018-05-31T09:52:39.237Z,24.40
2018-05-31T09:55:08.146Z,24.50
2018-05-31T09:57:37.811Z,24.60
2018-05-31T10:00:06.737Z,24.60
2018-05-31T10:02:35.616Z,24.70
2018-05-31T10:05:04.515Z,24.70
2018-05-31T10:07:33.411Z,24.90
2018-05-31T10:10:02.389Z,25.00
2018-05-31T10:12:31.300Z,25.20
2018-05-31T10:15:00.280Z,25.30
2018-05-31T10:17:29.235Z,25.40
2018-05-31T10:19:58.116Z,25.40
2018-05-31T10:22:27.009Z,25.50
2018-05-31T10:24:55.911Z,25.60
2018-05-31T10:27:24.791Z,25.70
2018-05-31T10:29:53.708Z,25.80
2018-05-31T10:32:22.621Z,25.90
2018-05-31T10:34:52.276Z,25.80
2018-05-31T10:37:21.195Z,25.80
2018-05-31T10:39:50.086Z,25.80
2018-05-31T10:42:18.953Z,25.70
2018-05-31T10:44:47.850Z,25.70
2018-05-31T10:47:16.740Z,25.80
2018-05-31T10:49:45.664Z,25.90
2018-05-31T10:52:14.630Z,26.10
2018-05-31T10:54:43.505Z,26.30
2018-05-31T10:57:12.418Z,26.50
2018-05-31T10:59:41.340Z,26.50
2018-05-31T11:02:11.021Z,26.60
2018-05-31T11:04:39.942Z,26.60
2018-05-31T11:07:09.606Z,26.90
2018-05-31T11:09:38.526Z,26.80
2018-05-31T11:12:07.403Z,27.00
2018-05-31T11:14:36.289Z,27.10
2018-05-31T11:17:05.199Z,27.10
2018-05-31T11:19:34.862Z,27.00
2018-05-31T11:22:03.765Z,26.90
2018-05-31T11:24:32.647Z,27.10
2018-05-31T11:27:01.559Z,27.10
2018-05-31T11:29:30.468Z,27.30
2018-05-31T11:32:00.140Z,27.70
2018-05-31T11:34:29.055Z,27.70
2018-05-31T11:36:58.709Z,27.90
2018-05-31T11:39:27.628Z,27.90
2018-05-31T11:41:56.515Z,28.10
2018-05-31T11:44:25.492Z,28.20
2018-05-31T11:46:54.385Z,28.20
2018-05-31T11:49:23.278Z,28.30
2018-05-31T11:51:52.197Z,28.20
2018-05-31T11:54:21.133Z,28.30
2018-05-31T11:56:50.757Z,28.30
2018-05-31T11:59:19.647Z,28.20
2018-05-31T12:01:48.548Z,28.20
2018-05-31T12:04:17.540Z,28.30
2018-05-31T12:06:46.418Z,28.30
2018-05-31T12:09:15.317Z,28.40
2018-05-31T12:11:44.224Z,28.50
2018-05-31T12:14:13.124Z,28.70
2018-05-31T12:16:42.314Z,28.60
2018-05-31T12:19:11.284Z,28.40
2018-05-31T12:21:40.260Z,28.30
2018-05-31T12:24:09.157Z,28.40
2018-05-31T12:26:38.034Z,28.40
2018-05-31T12:29:07.150Z,28.40
2018-05-31T12:31:36.161Z,28.30
2018-05-31T12:34:06.589Z,28.40
2018-05-31T12:36:35.492Z,28.40
2018-05-31T12:39:04.385Z,28.50
2018-05-31T12:41:34.830Z,28.90
2018-05-31T12:44:04.511Z,29.10
2018-05-31T12:46:33.468Z,29.10
2018-05-31T12:49:02.385Z,29.30
2018-05-31T12:51:31.286Z,29.40
2018-05-31T12:54:00.237Z,29.50
2018-05-31T12:56:29.136Z,29.60
2018-05-31T12:58:58.149Z,29.50
2018-05-31T13:01:27.119Z,29.30
2018-05-31T13:03:56.108Z,29.40
2018-05-31T13:06:25.045Z,29.30
2018-05-31T13:08:53.910Z,29.30
2018-05-31T13:11:22.817Z,29.40
2018-05-31T13:13:51.724Z,29.60
2018-05-31T13:16:21.366Z,29.80
2018-05-31T13:18:50.303Z,29.70
2018-05-31T13:21:19.162Z,29.70
2018-05-31T13:23:48.070Z,29.80
2018-05-31T13:26:16.932Z,29.90
2018-05-31T13:28:45.827Z,30.10
2018-05-31T13:31:14.724Z,30.30
2018-05-31T13:33:43.619Z,30.50
2018-05-31T13:36:12.518Z,30.80
2018-05-31T13:38:41.479Z,30.90
2018-05-31T13:41:10.381Z,30.70
2018-05-31T13:43:39.287Z,30.60
2018-05-31T13:46:08.264Z,30.60
2018-05-31T13:48:37.338Z,30.70
2018-05-31T13:51:06.165Z,30.80
2018-05-31T13:53:35.061Z,31.10
2018-05-31T13:56:03.969Z,31.40
2018-05-31T13:58:33.652Z,31.40
2018-05-31T14:01:02.577Z,31.40
2018-05-31T14:03:32.313Z,31.70
2018-05-31T14:06:01.200Z,31.70
2018-05-31T14:08:30.109Z,31.80
2018-05-31T14:10:59.158Z,32.10
2018-05-31T14:13:28.835Z,32.80
2018-05-31T14:15:58.012Z,32.80
2018-05-31T14:18:26.910Z,33.10
2018-05-31T14:20:55.798Z,33.10
2018-05-31T14:23:24.702Z,32.90
2018-05-31T14:25:53.595Z,32.70
2018-05-31T14:28:22.547Z,32.00
2018-05-31T14:30:51.455Z,31.90
2018-05-31T14:33:20.427Z,31.90
2018-05-31T14:35:49.332Z,32.00
2018-05-31T14:38:18.242Z,32.20
2018-05-31T14:40:47.112Z,32.30
2018-05-31T14:43:16.136Z,32.20
2018-05-31T14:45:45.046Z,31.90
2018-05-31T14:48:13.929Z,31.60
2018-05-31T14:50:43.576Z,30.90
2018-05-31T14:53:12.445Z,30.80
2018-05-31T14:55:41.560Z,30.60
2018-05-31T14:58:10.465Z,30.30
2018-05-31T15:00:39.342Z,30.10
2018-05-31T15:03:08.244Z,29.90
2018-05-31T15:05:37.128Z,29.70
2018-05-31T15:08:06.069Z,29.50
2018-05-31T15:10:35.777Z,29.50
2018-05-31T15:13:04.738Z,29.50
2018-05-31T15:15:33.636Z,29.80
2018-05-31T15:18:03.290Z,30.40
2018-05-31T15:20:32.191Z,30.30
2018-05-31T15:23:01.092Z,30.40
2018-05-31T15:25:30.088Z,30.40
2018-05-31T15:27:59.093Z,30.00
2018-05-31T15:30:28.079Z,29.80
2018-05-31T15:32:57.040Z,29.50
2018-05-31T15:35:25.940Z,29.20
2018-05-31T15:37:55.874Z,29.00
2018-05-31T15:40:24.757Z,28.80
2018-05-31T15:42:53.659Z,28.60
2018-05-31T15:45:22.565Z,28.30
2018-05-31T15:47:51.435Z,28.10
2018-05-31T15:50:20.338Z,28.00
2018-05-31T15:52:49.336Z,27.80
2018-05-31T15:55:18.225Z,27.60
2018-05-31T15:57:47.116Z,27.50
2018-05-31T16:00:16.044Z,27.30
2018-05-31T16:02:45.714Z,27.10
2018-05-31T16:05:14.640Z,27.10
2018-05-31T16:07:44.338Z,27.00
2018-05-31T16:10:13.987Z,26.90
2018-05-31T16:12:42.860Z,26.90
2018-05-31T16:15:11.766Z,26.80
2018-05-31T16:17:40.704Z,26.60
2018-05-31T16:20:09.591Z,26.40
2018-05-31T16:22:39.254Z,26.30
2018-05-31T16:25:08.148Z,26.30
2018-05-31T16:27:37.063Z,26.20
2018-05-31T16:30:05.940Z,26.10
2018-05-31T16:32:34.829Z,25.80
2018-05-31T16:35:03.768Z,25.40
2018-05-31T16:37:33.443Z,24.90
2018-05-31T16:40:02.350Z,24.90
2018-05-31T16:42:31.267Z,24.80
2018-05-31T16:45:00.202Z,24.70
2018-05-31T16:47:29.198Z,24.40
2018-05-31T16:49:58.097Z,24.30
2018-05-31T16:52:27.005Z,24.10
2018-05-31T16:54:56.691Z,23.80
2018-05-31T16:57:26.383Z,23.50
2018-05-31T16:59:56.074Z,23.40
2018-05-31T17:02:25.028Z,23.40
2018-05-31T17:04:54.713Z,22.90
2018-05-31T17:07:23.606Z,22.90
2018-05-31T17:09:52.543Z,22.70
2018-05-31T17:12:21.485Z,22.50
2018-05-31T17:14:50.410Z,22.20
2018-05-31T17:20:06.248Z,21.50
2018-05-31T17:22:35.175Z,21.40
2018-05-31T17:25:04.056Z,21.20
2018-05-31T17:27:32.957Z,20.80
2018-05-31T17:30:01.908Z,20.40
2018-05-31T17:32:30.860Z,20.10
2018-05-31T17:35:00.497Z,20.00
2018-05-31T17:37:29.442Z,20.00
2018-05-31T17:39:58.339Z,20.10
2018-05-31T17:42:28.019Z,20.20
2018-05-31T17:44:56.949Z,20.10
2018-05-31T17:47:25.869Z,20.10
2018-05-31T17:49:54.799Z,20.00
2018-05-31T17:52:23.727Z,20.10
2018-05-31T17:54:53.451Z,20.10
2018-05-31T17:57:22.380Z,20.10
2018-05-31T17:59:51.287Z,20.10
2018-05-31T18:02:20.988Z,20.00
2018-05-31T18:04:50.731Z,20.00
2018-05-31T18:07:20.427Z,19.80
2018-05-31T18:09:50.089Z,19.40
2018-05-31T18:12:19.023Z,19.40
2018-05-31T18:14:47.964Z,19.30
2018-05-31T18:17:16.855Z,19.30
2018-05-31T18:19:45.767Z,19.40
2018-05-31T18:22:14.821Z,19.50
2018-05-31T18:24:43.713Z,19.60
2018-05-31T18:27:12.622Z,19.70
2018-05-31T18:29:42.280Z,19.70
2018-05-31T18:32:11.344Z,19.70
2018-05-31T18:34:41.061Z,19.70
2018-05-31T18:37:09.942Z,19.70
2018-05-31T18:39:38.843Z,19.70
2018-05-31T18:42:07.756Z,19.50
2018-05-31T18:44:36.708Z,19.40
2018-05-31T18:47:05.618Z,19.20
2018-05-31T18:49:35.307Z,19.00
2018-05-31T18:52:04.186Z,19.00
2018-05-31T18:54:33.122Z,19.00
2018-05-31T18:57:02.039Z,19.00
2018-05-31T18:59:30.975Z,19.00
2018-05-31T19:02:00.200Z,19.10
2018-05-31T19:04:29.130Z,19.10
2018-05-31T19:06:58.080Z,19.00
2018-05-31T19:09:32.735Z,19.00
2018-05-31T19:12:01.633Z,19.10
2018-05-31T19:14:30.529Z,19.00
2018-05-31T19:16:59.700Z,18.90
2018-05-31T19:19:34.524Z,18.80
2018-05-31T19:22:03.430Z,18.80
2018-05-31T19:24:37.925Z,18.80
2018-05-31T19:27:06.869Z,18.80
2018-05-31T19:29:35.756Z,18.80
2018-05-31T19:32:04.687Z,18.80
2018-05-31T19:34:33.631Z,18.70
2018-05-31T19:37:08.208Z,18.60
2018-05-31T19:39:37.121Z,18.50
2018-05-31T19:42:06.025Z,18.40
2018-05-31T19:44:37.866Z,18.30
2018-05-31T19:47:06.800Z,18.30
2018-05-31T19:49:36.474Z,18.40
2018-05-31T19:52:11.100Z,18.40
2018-05-31T19:54:40.027Z,18.50
2018-05-31T19:57:09.081Z,18.60
2018-05-31T19:59:43.532Z,18.70
2018-05-31T20:05:22.244Z,18.60
2018-05-31T20:07:51.946Z,18.60
2018-05-31T20:10:20.859Z,18.60
2018-05-31T20:12:49.739Z,18.60
2018-05-31T20:15:18.645Z,18.60
2018-05-31T20:17:47.585Z,18.70
2018-05-31T20:20:16.580Z,18.80
2018-05-31T20:22:45.468Z,18.80
2018-05-31T20:25:14.359Z,18.90
2018-05-31T20:27:44.033Z,18.80
2018-05-31T20:30:12.937Z,18.70
2018-05-31T20:32:41.827Z,18.80
2018-05-31T20:35:10.725Z,18.70
2018-05-31T20:37:39.606Z,18.70
2018-05-31T20:40:08.532Z,18.70
2018-05-31T20:42:37.415Z,18.70
2018-05-31T20:45:06.352Z,18.80
2018-05-31T20:47:36.007Z,18.80
2018-05-31T20:50:04.964Z,18.80
2018-05-31T20:52:34.607Z,18.80
2018-05-31T20:55:03.499Z,18.80
2018-05-31T20:57:32.435Z,18.80
2018-05-31T21:00:02.112Z,18.60
2018-05-31T21:02:30.991Z,18.60
2018-05-31T21:04:59.893Z,18.50
2018-05-31T21:07:28.779Z,18.40
2018-05-31T21:09:57.743Z,18.30
2018-05-31T21:12:26.620Z,18.30
2018-05-31T21:14:55.501Z,18.30
2018-05-31T21:17:24.406Z,18.30
2018-05-31T21:19:53.312Z,18.30
2018-05-31T21:22:22.230Z,18.30
2018-05-31T21:24:51.104Z,18.40
2018-05-31T21:27:20.003Z,18.30
2018-05-31T21:29:48.912Z,18.20
2018-05-31T21:32:18.576Z,18.20
2018-05-31T21:34:48.239Z,18.20
2018-05-31T21:37:17.136Z,18.20
2018-05-31T21:39:46.058Z,18.20
2018-05-31T21:42:14.971Z,18.30
2018-05-31T21:44:43.842Z,18.30
2018-05-31T21:47:12.847Z,18.30
2018-05-31T21:49:41.827Z,18.40
2018-05-31T21:52:10.758Z,18.40
2018-05-31T21:54:40.408Z,18.40
2018-05-31T21:57:09.297Z,18.30
2018-05-31T21:59:38.180Z,18.40
2018-05-31T22:02:07.076Z,18.40
2018-05-31T22:04:35.966Z,18.40
2018-05-31T22:07:04.845Z,18.40
2018-05-31T22:09:33.739Z,18.40
2018-05-31T22:12:02.639Z,18.40
2018-05-31T22:14:31.503Z,18.40
2018-05-31T22:17:00.415Z,18.40
2018-05-31T22:19:29.331Z,18.40
2018-05-31T22:21:58.258Z,18.40
2018-05-31T22:24:27.105Z,18.40
2018-05-31T22:26:56.009Z,18.40
2018-05-31T22:29:25.697Z,18.40
2018-05-31T22:31:54.559Z,18.40
2018-05-31T22:34:23.468Z,18.40
2018-05-31T22:36:52.350Z,18.40
2018-05-31T22:39:21.255Z,18.30
2018-05-31T22:41:50.129Z,18.30
2018-05-31T22:44:19.006Z,18.30
2018-05-31T22:46:47.909Z,18.30
2018-05-31T22:49:16.784Z,18.30
2018-05-31T22:51:45.682Z,18.20
2018-05-31T22:54:14.570Z,18.10
2018-05-31T22:56:43.519Z,18.10
2018-05-31T22:59:12.464Z,18.10
2018-05-31T23:01:41.331Z,18.10
2018-05-31T23:04:10.211Z,18.20
2018-05-31T23:06:39.099Z,18.10
2018-05-31T23:09:08.053Z,18.20
2018-05-31T23:11:37.731Z,18.10
2018-05-31T23:14:06.717Z,18.10
2018-05-31T23:16:35.608Z,18.00
2018-05-31T23:19:04.475Z,18.00
2018-05-31T23:21:33.346Z,17.90
2018-05-31T23:24:02.259Z,18.00
2018-05-31T23:26:31.124Z,18.00
2018-05-31T23:29:00.035Z,17.90
2018-05-31T23:31:28.895Z,17.90
2018-05-31T23:33:57.792Z,17.80
2018-05-31T23:36:26.672Z,17.70
2018-05-31T23:38:55.564Z,17.70
2018-05-31T23:41:24.452Z,17.60
2018-05-31T23:43:53.348Z,17.60
2018-05-31T23:46:22.224Z,17.50
2018-05-31T23:48:51.131Z,17.50
2018-05-31T23:51:20.012Z,17.50
2018-05-31T23:53:48.885Z,17.50
2018-05-31T23:56:17.759Z,17.40
2018-05-31T23:58:47.436Z,17.40
